sensor_id;sensor_type;location;lat;lon;timestamp;pressure;altitude;pressure_sealevel;temperature;humidity
43711;BME280;29309;42.682;23.372;2023-05-14T00:01:36;95658.50;;;13.65;56.77
43711;BME280;29309;42.682;23.372;2023-05-14T00:04:05;95655.50;;;13.61;57.04
43711;BME280;29309;42.682;23.372;2023-05-14T00:06:33;95650.03;;;13.63;56.82
43711;BME280;29309;42.682;23.372;2023-05-14T00:08:59;95639.44;;;13.59;56.82
43711;BME280;29309;42.682;23.372;2023-05-14T00:11:24;95645.09;;;13.61;56.52
43711;BME280;29309;42.682;23.372;2023-05-14T00:13:50;95640.16;;;13.60;56.44
43711;BME280;29309;42.682;23.372;2023-05-14T00:16:16;95632.59;;;13.62;56.21
43711;BME280;29309;42.682;23.372;2023-05-14T00:18:41;95631.13;;;13.61;55.84
43711;BME280;29309;42.682;23.372;2023-05-14T00:21:07;95634.03;;;13.63;55.86
43711;BME280;29309;42.682;23.372;2023-05-14T00:23:35;95625.56;;;13.61;55.45
43711;BME280;29309;42.682;23.372;2023-05-14T00:26:00;95623.56;;;13.64;55.70
43711;BME280;29309;42.682;23.372;2023-05-14T00:28:26;95629.16;;;13.64;55.68
43711;BME280;29309;42.682;23.372;2023-05-14T00:30:51;95625.38;;;13.73;55.43
43711;BME280;29309;42.682;23.372;2023-05-14T00:33:17;95624.03;;;13.74;55.28
43711;BME280;29309;42.682;23.372;2023-05-14T00:35:42;95608.53;;;13.71;55.72
43711;BME280;29309;42.682;23.372;2023-05-14T00:38:08;95614.41;;;13.77;55.57
43711;BME280;29309;42.682;23.372;2023-05-14T00:40:34;95618.63;;;13.78;55.21
43711;BME280;29309;42.682;23.372;2023-05-14T00:43:00;95617.28;;;13.79;55.44
43711;BME280;29309;42.682;23.372;2023-05-14T00:45:25;95617.09;;;13.75;55.38
43711;BME280;29309;42.682;23.372;2023-05-14T00:47:52;95605.84;;;13.73;54.90
43711;BME280;29309;42.682;23.372;2023-05-14T00:50:21;95620.53;;;13.73;55.38
43711;BME280;29309;42.682;23.372;2023-05-14T00:52:47;95611.88;;;13.67;55.69
43711;BME280;29309;42.682;23.372;2023-05-14T00:55:15;95605.59;;;13.67;55.13
43711;BME280;29309;42.682;23.372;2023-05-14T00:57:41;95609.47;;;13.60;55.02
43711;BME280;29309;42.682;23.372;2023-05-14T01:00:07;95606.03;;;13.61;55.36
43711;BME280;29309;42.682;23.372;2023-05-14T01:02:33;95596.75;;;13.57;55.41
43711;BME280;29309;42.682;23.372;2023-05-14T01:04:58;95603.59;;;13.54;55.15
43711;BME280;29309;42.682;23.372;2023-05-14T01:07:55;95605.66;;;13.53;54.82
43711;BME280;29309;42.682;23.372;2023-05-14T01:10:26;95596.75;;;13.41;54.41
43711;BME280;29309;42.682;23.372;2023-05-14T01:13:16;95599.91;;;13.34;54.72
43711;BME280;29309;42.682;23.372;2023-05-14T01:15:46;95597.19;;;13.36;54.37
43711;BME280;29309;42.682;23.372;2023-05-14T01:18:16;95596.94;;;13.29;54.42
43711;BME280;29309;42.682;23.372;2023-05-14T01:20:43;95591.97;;;13.28;54.67
43711;BME280;29309;42.682;23.372;2023-05-14T01:23:09;95592.69;;;13.28;54.19
43711;BME280;29309;42.682;23.372;2023-05-14T01:25:35;95603.13;;;13.28;54.89
43711;BME280;29309;42.682;23.372;2023-05-14T01:28:10;95603.03;;;13.26;54.88
43711;BME280;29309;42.682;23.372;2023-05-14T01:30:44;95626.25;;;13.30;54.40
43711;BME280;29309;42.682;23.372;2023-05-14T01:33:13;95612.00;;;13.24;54.36
43711;BME280;29309;42.682;23.372;2023-05-14T01:35:40;95615.63;;;13.27;54.83
43711;BME280;29309;42.682;23.372;2023-05-14T01:38:10;95623.34;;;13.28;54.11
43711;BME280;29309;42.682;23.372;2023-05-14T01:40:39;95608.22;;;13.18;54.59
43711;BME280;29309;42.682;23.372;2023-05-14T01:43:06;95617.59;;;13.24;54.58
43711;BME280;29309;42.682;23.372;2023-05-14T01:45:34;95626.78;;;13.27;54.72
43711;BME280;29309;42.682;23.372;2023-05-14T01:47:59;95633.78;;;13.28;55.27
43711;BME280;29309;42.682;23.372;2023-05-14T01:50:25;95628.22;;;13.28;54.60
43711;BME280;29309;42.682;23.372;2023-05-14T01:52:50;95625.34;;;13.26;54.70
43711;BME280;29309;42.682;23.372;2023-05-14T01:55:23;95613.91;;;13.20;54.86
43711;BME280;29309;42.682;23.372;2023-05-14T01:57:49;95628.38;;;13.16;54.84
43711;BME280;29309;42.682;23.372;2023-05-14T02:00:15;95623.34;;;13.13;54.98
43711;BME280;29309;42.682;23.372;2023-05-14T02:02:41;95643.47;;;13.11;54.90
43711;BME280;29309;42.682;23.372;2023-05-14T02:05:07;95623.88;;;13.09;55.10
43711;BME280;29309;42.682;23.372;2023-05-14T02:07:32;95631.72;;;12.99;55.50
43711;BME280;29309;42.682;23.372;2023-05-14T02:09:58;95623.16;;;12.95;56.36
43711;BME280;29309;42.682;23.372;2023-05-14T02:12:41;95634.94;;;12.94;56.82
43711;BME280;29309;42.682;23.372;2023-05-14T02:15:07;95632.69;;;12.90;57.20
43711;BME280;29309;42.682;23.372;2023-05-14T02:17:35;95624.22;;;12.88;57.52
43711;BME280;29309;42.682;23.372;2023-05-14T02:20:00;95622.69;;;12.85;57.60
43711;BME280;29309;42.682;23.372;2023-05-14T02:22:25;95636.41;;;12.81;57.36
43711;BME280;29309;42.682;23.372;2023-05-14T02:24:51;95634.28;;;12.79;57.05
43711;BME280;29309;42.682;23.372;2023-05-14T02:27:17;95641.78;;;12.77;57.44
43711;BME280;29309;42.682;23.372;2023-05-14T02:29:42;95648.09;;;12.77;57.09
43711;BME280;29309;42.682;23.372;2023-05-14T02:32:08;95648.41;;;12.70;57.75
43711;BME280;29309;42.682;23.372;2023-05-14T02:34:33;95650.38;;;12.67;57.51
43711;BME280;29309;42.682;23.372;2023-05-14T02:36:58;95645.47;;;12.66;58.02
43711;BME280;29309;42.682;23.372;2023-05-14T02:39:24;95650.19;;;12.63;58.27
43711;BME280;29309;42.682;23.372;2023-05-14T02:41:50;95660.50;;;12.61;58.69
43711;BME280;29309;42.682;23.372;2023-05-14T02:44:15;95655.47;;;12.57;58.31
43711;BME280;29309;42.682;23.372;2023-05-14T02:46:41;95669.81;;;12.52;58.46
43711;BME280;29309;42.682;23.372;2023-05-14T02:49:06;95674.66;;;12.51;58.31
43711;BME280;29309;42.682;23.372;2023-05-14T02:51:32;95661.06;;;12.44;59.13
43711;BME280;29309;42.682;23.372;2023-05-14T02:53:57;95673.09;;;12.48;58.92
43711;BME280;29309;42.682;23.372;2023-05-14T02:56:23;95660.94;;;12.42;58.76
43711;BME280;29309;42.682;23.372;2023-05-14T02:58:48;95659.63;;;12.43;58.91
43711;BME280;29309;42.682;23.372;2023-05-14T03:01:14;95665.28;;;12.45;58.29
43711;BME280;29309;42.682;23.372;2023-05-14T03:03:39;95661.16;;;12.46;58.54
43711;BME280;29309;42.682;23.372;2023-05-14T03:06:05;95659.28;;;12.50;58.86
43711;BME280;29309;42.682;23.372;2023-05-14T03:08:30;95657.31;;;12.53;58.52
43711;BME280;29309;42.682;23.372;2023-05-14T03:10:56;95657.97;;;12.51;58.19
43711;BME280;29309;42.682;23.372;2023-05-14T03:13:21;95658.06;;;12.53;58.48
43711;BME280;29309;42.682;23.372;2023-05-14T03:15:47;95646.91;;;12.53;58.44
43711;BME280;29309;42.682;23.372;2023-05-14T03:18:13;95644.94;;;12.56;58.31
43711;BME280;29309;42.682;23.372;2023-05-14T03:20:39;95625.34;;;12.54;58.25
43711;BME280;29309;42.682;23.372;2023-05-14T03:23:05;95628.22;;;12.56;57.99
43711;BME280;29309;42.682;23.372;2023-05-14T03:25:30;95635.44;;;12.61;58.39
43711;BME280;29309;42.682;23.372;2023-05-14T03:27:55;95644.31;;;12.57;58.68
43711;BME280;29309;42.682;23.372;2023-05-14T03:30:21;95649.16;;;12.57;58.90
43711;BME280;29309;42.682;23.372;2023-05-14T03:32:46;95643.50;;;12.55;59.17
43711;BME280;29309;42.682;23.372;2023-05-14T03:35:12;95651.16;;;12.54;59.69
43711;BME280;29309;42.682;23.372;2023-05-14T03:37:37;95650.41;;;12.54;60.25
43711;BME280;29309;42.682;23.372;2023-05-14T03:40:03;95662.28;;;12.54;60.55
43711;BME280;29309;42.682;23.372;2023-05-14T03:42:29;95673.31;;;12.52;61.10
43711;BME280;29309;42.682;23.372;2023-05-14T03:44:54;95653.75;;;12.37;61.31
43711;BME280;29309;42.682;23.372;2023-05-14T03:47:20;95651.38;;;12.31;62.73
43711;BME280;29309;42.682;23.372;2023-05-14T03:49:45;95653.03;;;12.22;63.31
43711;BME280;29309;42.682;23.372;2023-05-14T03:52:10;95655.19;;;12.24;64.32
43711;BME280;29309;42.682;23.372;2023-05-14T03:54:36;95650.03;;;12.18;64.33
43711;BME280;29309;42.682;23.372;2023-05-14T03:57:03;95664.44;;;12.01;64.51
43711;BME280;29309;42.682;23.372;2023-05-14T03:59:28;95664.28;;;11.97;64.55
43711;BME280;29309;42.682;23.372;2023-05-14T04:01:53;95650.88;;;11.94;65.19
43711;BME280;29309;42.682;23.372;2023-05-14T04:04:19;95652.72;;;11.89;65.74
43711;BME280;29309;42.682;23.372;2023-05-14T04:06:44;95655.38;;;11.87;65.38
43711;BME280;29309;42.682;23.372;2023-05-14T04:09:10;95652.72;;;11.89;65.61
43711;BME280;29309;42.682;23.372;2023-05-14T04:11:36;95652.94;;;11.93;65.67
43711;BME280;29309;42.682;23.372;2023-05-14T04:14:01;95658.06;;;11.99;65.70
43711;BME280;29309;42.682;23.372;2023-05-14T04:16:27;95656.22;;;12.03;65.26
43711;BME280;29309;42.682;23.372;2023-05-14T04:18:52;95670.22;;;12.05;65.60
43711;BME280;29309;42.682;23.372;2023-05-14T04:21:18;95668.47;;;12.12;66.06
43711;BME280;29309;42.682;23.372;2023-05-14T04:23:43;95671.38;;;12.14;65.75
43711;BME280;29309;42.682;23.372;2023-05-14T04:26:09;95656.94;;;12.17;65.29
43711;BME280;29309;42.682;23.372;2023-05-14T04:28:34;95671.16;;;12.23;65.18
43711;BME280;29309;42.682;23.372;2023-05-14T04:31:00;95669.84;;;12.24;64.97
43711;BME280;29309;42.682;23.372;2023-05-14T04:33:25;95675.50;;;12.26;64.99
43711;BME280;29309;42.682;23.372;2023-05-14T04:35:52;95678.19;;;12.24;64.00
43711;BME280;29309;42.682;23.372;2023-05-14T04:38:18;95687.25;;;12.25;64.26
43711;BME280;29309;42.682;23.372;2023-05-14T04:40:43;95689.31;;;12.24;64.60
43711;BME280;29309;42.682;23.372;2023-05-14T04:43:09;95696.22;;;12.23;64.37
43711;BME280;29309;42.682;23.372;2023-05-14T04:45:35;95696.13;;;12.21;64.66
43711;BME280;29309;42.682;23.372;2023-05-14T04:48:02;95709.09;;;12.17;64.80
43711;BME280;29309;42.682;23.372;2023-05-14T04:50:28;95699.72;;;12.10;65.57
43711;BME280;29309;42.682;23.372;2023-05-14T04:52:53;95704.13;;;12.02;65.92
43711;BME280;29309;42.682;23.372;2023-05-14T04:55:20;95720.22;;;12.03;66.64
43711;BME280;29309;42.682;23.372;2023-05-14T04:57:45;95710.22;;;11.98;67.06
43711;BME280;29309;42.682;23.372;2023-05-14T05:00:11;95715.16;;;12.00;67.67
43711;BME280;29309;42.682;23.372;2023-05-14T05:02:37;95716.41;;;11.97;67.59
43711;BME280;29309;42.682;23.372;2023-05-14T05:05:03;95734.34;;;11.94;68.46
43711;BME280;29309;42.682;23.372;2023-05-14T05:07:28;95732.97;;;11.81;68.40
43711;BME280;29309;42.682;23.372;2023-05-14T05:09:53;95738.44;;;11.79;69.24
43711;BME280;29309;42.682;23.372;2023-05-14T05:12:19;95750.91;;;11.66;69.05
43711;BME280;29309;42.682;23.372;2023-05-14T05:14:45;95755.09;;;11.54;69.59
43711;BME280;29309;42.682;23.372;2023-05-14T05:17:11;95754.66;;;11.46;70.93
43711;BME280;29309;42.682;23.372;2023-05-14T05:19:36;95756.25;;;11.37;71.79
43711;BME280;29309;42.682;23.372;2023-05-14T05:22:02;95763.53;;;11.30;72.10
43711;BME280;29309;42.682;23.372;2023-05-14T05:24:27;95772.38;;;11.27;73.47
43711;BME280;29309;42.682;23.372;2023-05-14T05:26:53;95778.09;;;11.17;74.57
43711;BME280;29309;42.682;23.372;2023-05-14T05:29:21;95781.13;;;11.10;75.68
43711;BME280;29309;42.682;23.372;2023-05-14T05:31:47;95779.94;;;11.01;76.53
43711;BME280;29309;42.682;23.372;2023-05-14T05:34:12;95772.97;;;10.89;78.14
43711;BME280;29309;42.682;23.372;2023-05-14T05:36:38;95782.88;;;10.80;79.16
43711;BME280;29309;42.682;23.372;2023-05-14T05:39:03;95793.66;;;10.74;80.52
43711;BME280;29309;42.682;23.372;2023-05-14T05:41:29;95794.00;;;10.68;81.47
43711;BME280;29309;42.682;23.372;2023-05-14T05:43:54;95788.59;;;10.59;83.75
43711;BME280;29309;42.682;23.372;2023-05-14T05:46:20;95786.16;;;10.53;84.60
43711;BME280;29309;42.682;23.372;2023-05-14T05:48:45;95778.94;;;10.36;85.64
43711;BME280;29309;42.682;23.372;2023-05-14T05:51:11;95788.59;;;10.35;86.63
43711;BME280;29309;42.682;23.372;2023-05-14T05:53:36;95779.28;;;10.31;87.60
43711;BME280;29309;42.682;23.372;2023-05-14T05:56:01;95791.00;;;10.29;88.08
43711;BME280;29309;42.682;23.372;2023-05-14T05:58:28;95793.66;;;10.27;88.33
43711;BME280;29309;42.682;23.372;2023-05-14T06:00:53;95780.63;;;10.18;89.30
43711;BME280;29309;42.682;23.372;2023-05-14T06:03:19;95779.06;;;10.15;89.52
43711;BME280;29309;42.682;23.372;2023-05-14T06:05:46;95781.41;;;10.09;90.48
43711;BME280;29309;42.682;23.372;2023-05-14T06:08:11;95774.19;;;10.04;90.98
43711;BME280;29309;42.682;23.372;2023-05-14T06:10:37;95784.94;;;9.98;91.60
43711;BME280;29309;42.682;23.372;2023-05-14T06:13:02;95775.63;;;9.94;91.37
43711;BME280;29309;42.682;23.372;2023-05-14T06:15:27;95783.34;;;9.95;92.26
43711;BME280;29309;42.682;23.372;2023-05-14T06:17:53;95779.72;;;9.93;93.41
43711;BME280;29309;42.682;23.372;2023-05-14T06:20:18;95782.50;;;9.93;93.97
43711;BME280;29309;42.682;23.372;2023-05-14T06:22:44;95776.22;;;9.92;94.46
43711;BME280;29309;42.682;23.372;2023-05-14T06:25:09;95773.34;;;9.90;95.16
43711;BME280;29309;42.682;23.372;2023-05-14T06:27:35;95769.25;;;9.91;95.53
43711;BME280;29309;42.682;23.372;2023-05-14T06:30:00;95774.06;;;9.91;96.31
43711;BME280;29309;42.682;23.372;2023-05-14T06:32:26;95773.69;;;9.96;96.76
43711;BME280;29309;42.682;23.372;2023-05-14T06:34:51;95782.00;;;9.96;97.07
43711;BME280;29309;42.682;23.372;2023-05-14T06:37:17;95782.63;;;9.95;96.36
43711;BME280;29309;42.682;23.372;2023-05-14T06:39:42;95795.88;;;9.96;96.97
43711;BME280;29309;42.682;23.372;2023-05-14T06:42:14;95793.00;;;9.94;97.43
43711;BME280;29309;42.682;23.372;2023-05-14T06:44:40;95785.75;;;9.89;97.74
43711;BME280;29309;42.682;23.372;2023-05-14T06:47:06;95776.69;;;9.88;97.90
43711;BME280;29309;42.682;23.372;2023-05-14T06:49:33;95772.59;;;9.89;98.63
43711;BME280;29309;42.682;23.372;2023-05-14T06:51:59;95773.44;;;9.92;99.68
43711;BME280;29309;42.682;23.372;2023-05-14T06:54:24;95773.84;;;9.98;100.00
43711;BME280;29309;42.682;23.372;2023-05-14T06:56:50;95758.03;;;10.01;100.00
43711;BME280;29309;42.682;23.372;2023-05-14T06:59:15;95751.88;;;10.02;100.00
43711;BME280;29309;42.682;23.372;2023-05-14T07:01:40;95750.31;;;9.99;100.00
43711;BME280;29309;42.682;23.372;2023-05-14T07:04:06;95754.41;;;9.98;100.00
43711;BME280;29309;42.682;23.372;2023-05-14T07:06:32;95757.66;;;9.95;100.00
43711;BME280;29309;42.682;23.372;2023-05-14T07:08:59;95761.16;;;9.95;100.00
43711;BME280;29309;42.682;23.372;2023-05-14T07:11:25;95766.22;;;9.99;100.00
43711;BME280;29309;42.682;23.372;2023-05-14T07:13:50;95769.34;;;9.93;100.00
43711;BME280;29309;42.682;23.372;2023-05-14T07:16:16;95762.84;;;9.88;100.00
43711;BME280;29309;42.682;23.372;2023-05-14T07:18:41;95769.25;;;9.91;100.00
43711;BME280;29309;42.682;23.372;2023-05-14T07:21:08;95791.19;;;9.87;100.00
43711;BME280;29309;42.682;23.372;2023-05-14T07:23:34;95812.88;;;9.91;100.00
43711;BME280;29309;42.682;23.372;2023-05-14T07:26:01;95805.19;;;10.01;100.00
43711;BME280;29309;42.682;23.372;2023-05-14T07:28:27;95798.19;;;10.00;100.00
43711;BME280;29309;42.682;23.372;2023-05-14T07:30:52;95785.88;;;9.91;100.00
43711;BME280;29309;42.682;23.372;2023-05-14T07:33:18;95786.00;;;9.93;100.00
43711;BME280;29309;42.682;23.372;2023-05-14T07:35:43;95779.94;;;9.85;100.00
43711;BME280;29309;42.682;23.372;2023-05-14T07:38:09;95783.91;;;9.82;100.00
43711;BME280;29309;42.682;23.372;2023-05-14T07:40:34;95785.13;;;9.79;100.00
43711;BME280;29309;42.682;23.372;2023-05-14T07:43:00;95788.84;;;9.72;100.00
43711;BME280;29309;42.682;23.372;2023-05-14T07:45:25;95781.72;;;9.69;100.00
43711;BME280;29309;42.682;23.372;2023-05-14T07:47:51;95788.59;;;9.68;100.00
43711;BME280;29309;42.682;23.372;2023-05-14T07:50:17;95789.56;;;9.72;100.00
43711;BME280;29309;42.682;23.372;2023-05-14T07:52:43;95780.53;;;9.72;100.00
43711;BME280;29309;42.682;23.372;2023-05-14T07:55:09;95788.72;;;9.70;100.00
43711;BME280;29309;42.682;23.372;2023-05-14T07:57:35;95798.72;;;9.75;100.00
43711;BME280;29309;42.682;23.372;2023-05-14T08:00:02;95799.31;;;9.73;100.00
43711;BME280;29309;42.682;23.372;2023-05-14T08:02:28;95814.16;;;9.78;100.00
43711;BME280;29309;42.682;23.372;2023-05-14T08:04:53;95805.84;;;9.78;100.00
43711;BME280;29309;42.682;23.372;2023-05-14T08:07:19;95795.97;;;9.75;100.00
43711;BME280;29309;42.682;23.372;2023-05-14T08:09:45;95800.78;;;9.74;100.00
43711;BME280;29309;42.682;23.372;2023-05-14T08:12:11;95794.38;;;9.72;100.00
43711;BME280;29309;42.682;23.372;2023-05-14T08:14:36;95798.72;;;9.75;100.00
43711;BME280;29309;42.682;23.372;2023-05-14T08:17:02;95783.16;;;9.70;100.00
43711;BME280;29309;42.682;23.372;2023-05-14T08:19:28;95787.28;;;9.69;100.00
43711;BME280;29309;42.682;23.372;2023-05-14T08:21:53;95781.72;;;9.69;100.00
43711;BME280;29309;42.682;23.372;2023-05-14T08:24:18;95783.56;;;9.76;100.00
43711;BME280;29309;42.682;23.372;2023-05-14T08:26:44;95775.50;;;9.80;100.00
43711;BME280;29309;42.682;23.372;2023-05-14T08:29:09;95775.72;;;9.84;100.00
43711;BME280;29309;42.682;23.372;2023-05-14T08:31:35;95777.06;;;9.83;100.00
43711;BME280;29309;42.682;23.372;2023-05-14T08:34:00;95771.75;;;9.87;100.00
43711;BME280;29309;42.682;23.372;2023-05-14T08:36:26;95770.41;;;9.88;100.00
43711;BME280;29309;42.682;23.372;2023-05-14T08:38:51;95770.81;;;9.94;100.00
43711;BME280;29309;42.682;23.372;2023-05-14T08:41:17;95775.63;;;9.94;100.00
43711;BME280;29309;42.682;23.372;2023-05-14T08:44:07;95762.59;;;9.96;100.00
43711;BME280;29309;42.682;23.372;2023-05-14T08:46:37;95759.22;;;9.86;100.00
43711;BME280;29309;42.682;23.372;2023-05-14T08:49:11;95748.06;;;9.51;100.00
43711;BME280;29309;42.682;23.372;2023-05-14T08:51:38;95741.13;;;9.40;100.00
43711;BME280;29309;42.682;23.372;2023-05-14T08:54:05;95756.06;;;9.35;100.00
43711;BME280;29309;42.682;23.372;2023-05-14T08:56:31;95755.47;;;9.37;100.00
43711;BME280;29309;42.682;23.372;2023-05-14T08:58:58;95743.03;;;9.26;100.00
43711;BME280;29309;42.682;23.372;2023-05-14T09:01:24;95738.81;;;9.25;100.00
43711;BME280;29309;42.682;23.372;2023-05-14T09:03:51;95736.63;;;9.24;100.00
43711;BME280;29309;42.682;23.372;2023-05-14T09:06:18;95745.09;;;9.26;100.00
43711;BME280;29309;42.682;23.372;2023-05-14T09:08:45;95758.94;;;9.26;100.00
43711;BME280;29309;42.682;23.372;2023-05-14T09:11:10;95745.22;;;9.28;100.00
43711;BME280;29309;42.682;23.372;2023-05-14T09:13:37;95753.63;;;9.30;100.00
43711;BME280;29309;42.682;23.372;2023-05-14T09:16:03;95752.47;;;9.45;100.00
43711;BME280;29309;42.682;23.372;2023-05-14T09:18:29;95741.44;;;9.56;100.00
43711;BME280;29309;42.682;23.372;2023-05-14T09:20:55;95740.72;;;9.67;100.00
43711;BME280;29309;42.682;23.372;2023-05-14T09:23:24;95747.63;;;9.78;100.00
43711;BME280;29309;42.682;23.372;2023-05-14T09:25:50;95759.69;;;9.82;100.00
43711;BME280;29309;42.682;23.372;2023-05-14T09:28:16;95756.56;;;9.88;100.00
43711;BME280;29309;42.682;23.372;2023-05-14T09:30:48;95756.31;;;9.84;100.00
43711;BME280;29309;42.682;23.372;2023-05-14T09:33:27;95738.50;;;9.87;100.00
43711;BME280;29309;42.682;23.372;2023-05-14T09:36:00;95730.41;;;9.91;100.00
43711;BME280;29309;42.682;23.372;2023-05-14T09:38:30;95738.84;;;9.93;100.00
43711;BME280;29309;42.682;23.372;2023-05-14T09:40:59;95736.44;;;9.99;100.00
43711;BME280;29309;42.682;23.372;2023-05-14T09:43:25;95731.75;;;10.02;100.00
43711;BME280;29309;42.682;23.372;2023-05-14T09:45:53;95733.66;;;9.99;100.00
43711;BME280;29309;42.682;23.372;2023-05-14T09:48:19;95719.69;;;9.97;100.00
43711;BME280;29309;42.682;23.372;2023-05-14T09:50:46;95720.41;;;9.98;100.00
43711;BME280;29309;42.682;23.372;2023-05-14T09:53:12;95726.06;;;10.00;100.00
43711;BME280;29309;42.682;23.372;2023-05-14T09:55:38;95721.13;;;9.98;100.00
43711;BME280;29309;42.682;23.372;2023-05-14T09:58:04;95723.28;;;10.00;100.00
43711;BME280;29309;42.682;23.372;2023-05-14T10:00:34;95713.66;;;10.01;100.00
43711;BME280;29309;42.682;23.372;2023-05-14T10:03:04;95725.81;;;10.07;100.00
43711;BME280;29309;42.682;23.372;2023-05-14T10:05:34;95709.69;;;10.15;100.00
43711;BME280;29309;42.682;23.372;2023-05-14T10:08:04;95709.69;;;10.15;100.00
43711;BME280;29309;42.682;23.372;2023-05-14T10:10:34;95688.81;;;10.14;100.00
43711;BME280;29309;42.682;23.372;2023-05-14T10:13:04;95698.84;;;10.19;100.00
43711;BME280;29309;42.682;23.372;2023-05-14T10:15:47;95691.72;;;10.16;99.91
43711;BME280;29309;42.682;23.372;2023-05-14T10:18:18;95692.91;;;10.13;100.00
43711;BME280;29309;42.682;23.372;2023-05-14T10:20:47;95691.00;;;10.16;100.00
43711;BME280;29309;42.682;23.372;2023-05-14T10:23:13;95679.03;;;10.13;100.00
43711;BME280;29309;42.682;23.372;2023-05-14T10:25:39;95666.25;;;10.08;100.00
43711;BME280;29309;42.682;23.372;2023-05-14T10:28:05;95674.34;;;10.04;100.00
43711;BME280;29309;42.682;23.372;2023-05-14T10:30:31;95680.47;;;10.03;100.00
43711;BME280;29309;42.682;23.372;2023-05-14T10:33:07;95695.69;;;10.02;100.00
43711;BME280;29309;42.682;23.372;2023-05-14T10:38:15;95691.69;;;9.93;100.00
43711;BME280;29309;42.682;23.372;2023-05-14T10:40:40;95690.25;;;9.92;100.00
43711;BME280;29309;42.682;23.372;2023-05-14T10:43:06;95695.19;;;9.94;100.00
43711;BME280;29309;42.682;23.372;2023-05-14T10:45:35;95686.16;;;9.93;100.00
43711;BME280;29309;42.682;23.372;2023-05-14T10:48:01;95681.34;;;9.94;100.00
43711;BME280;29309;42.682;23.372;2023-05-14T10:50:27;95677.59;;;9.89;100.00
43711;BME280;29309;42.682;23.372;2023-05-14T10:52:53;95683.28;;;9.91;100.00
43711;BME280;29309;42.682;23.372;2023-05-14T10:55:20;95684.09;;;9.94;100.00
43711;BME280;29309;42.682;23.372;2023-05-14T10:57:46;95678.91;;;10.00;100.00
43711;BME280;29309;42.682;23.372;2023-05-14T11:00:12;95686.03;;;10.03;100.00
43711;BME280;29309;42.682;23.372;2023-05-14T11:02:40;95683.38;;;10.05;100.00
43711;BME280;29309;42.682;23.372;2023-05-14T11:05:07;95662.50;;;10.04;100.00
43711;BME280;29309;42.682;23.372;2023-05-14T11:07:39;95671.06;;;9.96;100.00
43711;BME280;29309;42.682;23.372;2023-05-14T11:10:13;95667.09;;;9.99;100.00
43711;BME280;29309;42.682;23.372;2023-05-14T11:12:41;95674.94;;;10.03;100.00
43711;BME280;29309;42.682;23.372;2023-05-14T11:15:08;95667.94;;;10.02;100.00
43711;BME280;29309;42.682;23.372;2023-05-14T11:17:35;95676.38;;;10.04;100.00
43711;BME280;29309;42.682;23.372;2023-05-14T11:20:01;95691.81;;;10.07;100.00
43711;BME280;29309;42.682;23.372;2023-05-14T11:22:27;95688.06;;;10.02;100.00
43711;BME280;29309;42.682;23.372;2023-05-14T11:24:52;95686.88;;;10.05;100.00
43711;BME280;29309;42.682;23.372;2023-05-14T11:27:20;95684.81;;;10.06;100.00
43711;BME280;29309;42.682;23.372;2023-05-14T11:29:46;95686.25;;;10.07;100.00
43711;BME280;29309;42.682;23.372;2023-05-14T11:32:13;95673.22;;;10.09;100.00
43711;BME280;29309;42.682;23.372;2023-05-14T11:34:39;95673.47;;;10.13;100.00
43711;BME280;29309;42.682;23.372;2023-05-14T11:37:06;95671.59;;;10.16;100.00
43711;BME280;29309;42.682;23.372;2023-05-14T11:39:32;95673.25;;;9.98;100.00
43711;BME280;29309;42.682;23.372;2023-05-14T11:42:18;95671.31;;;9.65;100.00
43711;BME280;29309;42.682;23.372;2023-05-14T11:44:47;95669.88;;;9.64;100.00
43711;BME280;29309;42.682;23.372;2023-05-14T11:47:14;95657.22;;;9.61;100.00
43711;BME280;29309;42.682;23.372;2023-05-14T11:49:40;95654.78;;;9.56;100.00
43711;BME280;29309;42.682;23.372;2023-05-14T11:52:07;95653.00;;;9.60;100.00
43711;BME280;29309;42.682;23.372;2023-05-14T11:54:38;95655.25;;;9.52;100.00
43711;BME280;29309;42.682;23.372;2023-05-14T11:57:15;95657.31;;;9.52;100.00
43711;BME280;29309;42.682;23.372;2023-05-14T11:59:41;95645.03;;;9.55;100.00
43711;BME280;29309;42.682;23.372;2023-05-14T12:02:15;95645.75;;;9.67;100.00
43711;BME280;29309;42.682;23.372;2023-05-14T12:04:42;95649.84;;;9.66;100.00
43711;BME280;29309;42.682;23.372;2023-05-14T12:07:09;95641.53;;;9.89;100.00
43711;BME280;29309;42.682;23.372;2023-05-14T12:09:37;95644.56;;;10.05;100.00
43711;BME280;29309;42.682;23.372;2023-05-14T12:12:10;95633.69;;;10.20;100.00
43711;BME280;29309;42.682;23.372;2023-05-14T12:14:37;95622.81;;;10.24;100.00
43711;BME280;29309;42.682;23.372;2023-05-14T12:17:20;95623.03;;;10.40;100.00
43711;BME280;29309;42.682;23.372;2023-05-14T12:19:50;95620.22;;;10.52;100.00
43711;BME280;29309;42.682;23.372;2023-05-14T12:22:21;95618.75;;;10.62;100.00
43711;BME280;29309;42.682;23.372;2023-05-14T12:24:54;95610.16;;;10.70;99.36
43711;BME280;29309;42.682;23.372;2023-05-14T12:27:27;95607.69;;;10.76;99.16
43711;BME280;29309;42.682;23.372;2023-05-14T12:30:04;95599.69;;;10.82;98.66
43711;BME280;29309;42.682;23.372;2023-05-14T12:32:34;95603.19;;;10.82;97.69
43711;BME280;29309;42.682;23.372;2023-05-14T12:35:00;95597.25;;;10.88;97.73
43711;BME280;29309;42.682;23.372;2023-05-14T12:37:25;95597.50;;;10.92;98.34
43711;BME280;29309;42.682;23.372;2023-05-14T12:39:51;95597.50;;;10.92;97.56
43711;BME280;29309;42.682;23.372;2023-05-14T12:42:17;95583.19;;;10.98;97.98
43711;BME280;29309;42.682;23.372;2023-05-14T12:44:42;95585.97;;;10.98;96.65
43711;BME280;29309;42.682;23.372;2023-05-14T12:47:08;95577.41;;;10.94;95.35
43711;BME280;29309;42.682;23.372;2023-05-14T12:49:33;95576.81;;;10.95;95.44
43711;BME280;29309;42.682;23.372;2023-05-14T12:51:58;95577.63;;;10.98;95.56